Time;durP1;ratioP1;P1;durP2;ratioP2;P2;SDS_P1;SDS_P2;PMS_P1;PMS_P2;Temp;Humidity;BMP_temperature;BMP_pressure;BME280_temperature;BME280_humidity;BME280_pressure;Samples;Min_cycle;Max_cycle;Signal;HPM_P1;HPM_P2
2023/09/25 00:01:02;;;;;;;17.20;7.50;;;;;;;10.91;100.00;102002.41;105669;1257;73837;-50
2023/09/25 00:03:29;;;;;;;17.70;8.00;;;;;;;10.88;100.00;102002.91;105702;1255;63188;-52
2023/09/25 00:05:59;;;;;;;19.80;7.70;;;;;;;10.86;100.00;102006.86;105743;1259;72558;-50
2023/09/25 00:08:27;;;;;;;23.70;8.00;;;;;;;10.83;100.00;102009.44;105712;1258;60516;-51
2023/09/25 00:10:54;;;;;;;20.10;6.90;;;;;;;10.78;100.00;102013.05;105734;1254;60351;-50
2023/09/25 00:13:22;;;;;;;29.00;9.00;;;;;;;10.73;100.00;102024.06;105710;1254;72545;-52
2023/09/25 00:15:50;;;;;;;26.70;7.70;;;;;;;10.67;100.00;102032.14;105669;1254;62878;-49
2023/09/25 00:18:18;;;;;;;27.40;8.00;;;;;;;10.61;100.00;102035.55;105647;1254;71445;-48
2023/09/25 00:20:46;;;;;;;20.40;7.80;;;;;;;10.56;100.00;102042.78;105672;1259;60591;-49
2023/09/25 00:23:13;;;;;;;20.40;7.30;;;;;;;10.50;100.00;102047.05;105675;1254;60332;-49
2023/09/25 00:25:41;;;;;;;31.20;9.10;;;;;;;10.44;100.00;102053.38;105685;1257;72580;-50
2023/09/25 00:28:09;;;;;;;18.50;7.90;;;;;;;10.40;100.00;102056.95;105782;1257;63179;-52
2023/09/25 00:30:37;;;;;;;18.30;7.50;;;;;;;10.39;100.00;102065.23;105670;1254;72693;-50
2023/09/25 00:33:05;;;;;;;21.40;7.60;;;;;;;10.37;100.00;102065.73;105667;1259;60534;-51
2023/09/25 00:35:33;;;;;;;30.50;7.30;;;;;;;10.34;100.00;102073.29;105696;1254;60544;-49
2023/09/25 00:38:02;;;;;;;26.00;8.70;;;;;;;10.30;100.00;102077.92;105667;1257;72641;-51
2023/09/25 00:40:30;;;;;;;18.80;7.60;;;;;;;10.28;100.00;102084.98;105742;1257;63128;-51
2023/09/25 00:42:57;;;;;;;21.30;7.80;;;;;;;10.27;100.00;102084.28;105652;1254;71516;-52
2023/09/25 00:45:25;;;;;;;23.40;8.50;;;;;;;10.24;100.00;102084.24;105655;1254;60956;-51
2023/09/25 00:47:54;;;;;;;27.40;8.30;;;;;;;10.19;100.00;102088.00;105745;1257;60332;-51
2023/09/25 00:50:29;;;;;;;20.10;9.20;;;;;;;10.12;100.00;102085.52;105665;1253;73088;-52
2023/09/25 00:53:03;;;;;;;17.60;7.60;;;;;;;10.06;100.00;102085.63;105763;1257;64226;-50
2023/09/25 00:55:31;;;;;;;18.80;7.70;;;;;;;10.00;100.00;102087.32;105690;1258;72643;-52
2023/09/25 00:57:59;;;;;;;28.70;8.40;;;;;;;9.95;100.00;102084.31;105671;1254;60505;-50
2023/09/25 01:00:27;;;;;;;23.00;8.20;;;;;;;9.93;100.00;102079.13;105703;1254;60515;-49
2023/09/25 01:02:55;;;;;;;20.00;8.10;;;;;;;9.95;100.00;102071.20;105831;1254;73917;-50
2023/09/25 01:05:23;;;;;;;17.20;7.80;;;;;;;9.95;100.00;102056.04;105734;1254;64361;-50
2023/09/25 01:07:52;;;;;;;17.90;8.70;;;;;;;9.95;100.00;102047.41;105712;1257;71428;-49
2023/09/25 01:10:19;;;;;;;22.90;8.50;;;;;;;9.95;100.00;102037.73;105894;1254;60463;-49
2023/09/25 01:12:48;;;;;;;21.80;8.20;;;;;;;9.92;100.00;102030.48;105693;1254;60544;-50
2023/09/25 01:15:16;;;;;;;18.80;7.80;;;;;;;9.88;100.00;102025.63;105679;1254;72589;-51
2023/09/25 01:17:44;;;;;;;31.60;7.90;;;;;;;9.85;100.00;102019.05;105850;1256;63166;-49
2023/09/25 01:20:12;;;;;;;25.90;9.20;;;;;;;9.84;100.00;102017.30;105698;1257;71416;-51
2023/09/25 01:22:41;;;;;;;26.10;9.20;;;;;;;9.82;100.00;102008.83;105697;1258;60534;-52
2023/09/25 01:25:12;;;;;;;25.40;8.40;;;;;;;9.80;100.00;102009.34;105718;1253;60509;-54
2023/09/25 01:27:42;;;;;;;15.30;8.00;;;;;;;9.76;100.00;102005.17;105666;1257;73817;-55
2023/09/25 01:30:11;;;;;;;26.20;7.90;;;;;;;9.74;100.00;102007.73;105751;1254;64617;-53
2023/09/25 01:32:39;;;;;;;20.10;8.80;;;;;;;9.69;100.00;102002.16;105863;1257;71789;-53
2023/09/25 01:35:23;;;;;;;25.60;8.30;;;;;;;9.65;100.00;102004.71;105720;1254;60531;-53
2023/09/25 01:37:58;;;;;;;22.70;7.80;;;;;;;9.64;100.00;101997.80;105915;1256;60338;-53
2023/09/25 01:40:26;;;;;;;25.40;8.20;;;;;;;9.64;100.00;101993.33;105675;1254;72628;-52
2023/09/25 01:42:54;;;;;;;31.90;8.40;;;;;;;9.65;100.00;101986.96;105704;1253;63212;-52
2023/09/25 01:45:23;;;;;;;18.10;8.30;;;;;;;9.63;100.00;101979.87;105727;1257;71404;-52
2023/09/25 01:47:52;;;;;;;25.90;8.80;;;;;;;9.59;100.00;101978.28;105724;1253;60626;-53
2023/09/25 01:50:23;;;;;;;27.00;8.50;;;;;;;9.54;100.00;101970.98;105730;1257;60440;-54
2023/09/25 01:52:54;;;;;;;27.50;8.60;;;;;;;9.55;100.00;101963.24;105720;1254;71706;-50
2023/09/25 01:55:21;;;;;;;29.80;8.30;;;;;;;9.58;100.00;101958.27;105870;1256;63130;-50
2023/09/25 02:44:52;;;;;;;16.20;8.50;;;;;;;9.27;100.00;101946.77;102771;1293;600707;-50
2023/09/25 02:47:20;;;;;;;26.10;8.90;;;;;;;9.25;100.00;101925.04;104869;1265;61641;-50
2023/09/25 02:49:49;;;;;;;17.00;7.10;;;;;;;9.27;100.00;101926.95;104901;1268;59605;-50
2023/09/25 02:52:16;;;;;;;17.70;8.40;;;;;;;9.29;100.00;101921.63;104821;1266;72237;-52
2023/09/25 02:54:45;;;;;;;24.60;8.50;;;;;;;9.29;100.00;101917.84;104853;1264;65077;-50
2023/09/25 02:57:14;;;;;;;22.60;8.00;;;;;;;9.28;100.00;101918.17;105046;1269;71379;-49
2023/09/25 02:59:42;;;;;;;16.60;8.60;;;;;;;9.27;100.00;101918.86;105105;1266;237033;-52
2023/09/25 03:02:10;;;;;;;19.20;8.20;;;;;;;9.25;100.00;101921.60;105217;1265;60027;-50
2023/09/25 03:06:10;;;;;;;18.30;7.70;;;;;;;9.19;100.00;101949.44;102864;1288;600619;-49
2023/09/25 03:08:38;;;;;;;23.50;7.50;;;;;;;9.09;100.00;101934.34;105081;1265;60380;-51
2023/09/25 03:11:05;;;;;;;22.70;7.30;;;;;;;9.00;100.00;101937.86;105102;1263;59254;-51
2023/09/25 03:13:33;;;;;;;21.90;7.40;;;;;;;8.93;100.00;101937.76;104931;1264;71138;-51
2023/09/25 03:16:01;;;;;;;25.80;7.80;;;;;;;8.88;100.00;101933.23;104898;1268;63219;-48
2023/09/25 03:18:29;;;;;;;15.80;7.40;;;;;;;8.87;100.00;101933.90;105065;1265;71440;-50
2023/09/25 03:20:56;;;;;;;20.20;8.20;;;;;;;8.84;100.00;101937.13;104976;1263;230781;-49
2023/09/25 03:23:24;;;;;;;25.40;8.10;;;;;;;8.81;100.00;101925.73;104823;1261;60139;-50
2023/09/25 03:25:52;;;;;;;18.90;7.70;;;;;;;8.77;100.00;101929.66;105174;1261;69971;-48
2023/09/25 03:28:19;;;;;;;16.10;7.20;;;;;;;8.73;100.00;101934.77;105189;1263;64300;-49
2023/09/25 03:30:48;;;;;;;19.80;8.40;;;;;;;8.69;100.00;101933.67;105161;1260;71993;-50
2023/09/25 03:33:16;;;;;;;20.70;9.10;;;;;;;8.67;100.00;101927.96;105225;1263;59703;-50
2023/09/25 03:35:44;;;;;;;22.00;8.40;;;;;;;8.67;100.00;101928.30;105186;1260;60031;-49
2023/09/25 03:38:11;;;;;;;16.30;7.70;;;;;;;8.66;100.00;101926.41;105189;1265;73026;-49
2023/09/25 03:40:39;;;;;;;13.30;7.70;;;;;;;8.65;100.00;101928.64;105091;1263;63234;-50
2023/09/25 03:43:07;;;;;;;18.70;8.50;;;;;;;8.64;100.00;101931.73;105126;1264;71399;-50
2023/09/25 03:45:34;;;;;;;25.20;8.80;;;;;;;8.62;100.00;101932.55;105116;1264;59696;-51
2023/09/25 03:48:03;;;;;;;14.70;7.80;;;;;;;8.61;100.00;101934.95;105192;1263;59610;-51
2023/09/25 03:50:30;;;;;;;21.60;7.60;;;;;;;8.59;100.00;101935.44;105230;1264;72996;-50
2023/09/25 03:53:02;;;;;;;19.80;7.90;;;;;;;8.57;100.00;101938.86;105242;1263;64467;-49
2023/09/25 03:55:30;;;;;;;27.30;9.00;;;;;;;8.58;100.00;101940.77;105202;1263;71012;-49
2023/09/25 03:57:58;;;;;;;23.10;9.10;;;;;;;8.60;100.00;101946.48;105130;1267;59724;-49
2023/09/25 04:00:26;;;;;;;21.00;9.50;;;;;;;8.61;100.00;101947.52;105184;1266;59708;-52
2023/09/25 04:02:54;;;;;;;23.80;9.00;;;;;;;8.62;100.00;101952.35;105191;1263;71822;-53
2023/09/25 04:05:23;;;;;;;25.50;9.80;;;;;;;8.65;100.00;101958.41;105162;1264;63179;-54
2023/09/25 04:07:50;;;;;;;17.00;7.60;;;;;;;8.71;100.00;101959.17;105255;1263;71441;-51
2023/09/25 04:10:18;;;;;;;18.80;8.70;;;;;;;8.77;100.00;101962.36;105176;1263;59680;-50
2023/09/25 04:12:46;;;;;;;18.30;8.00;;;;;;;8.85;100.00;101963.33;105161;1263;59555;-52
2023/09/25 04:15:16;;;;;;;18.50;8.70;;;;;;;8.92;100.00;101965.48;105212;1262;71731;-50
2023/09/25 04:17:44;;;;;;;21.30;8.10;;;;;;;8.99;100.00;101965.05;105194;1263;64386;-49
2023/09/25 04:20:16;;;;;;;14.30;8.20;;;;;;;9.09;100.00;101960.86;105129;1268;72623;-49
2023/09/25 04:22:45;;;;;;;16.00;8.50;;;;;;;9.21;100.00;101955.83;105197;1269;60701;-49
2023/09/25 04:25:18;;;;;;;16.50;8.30;;;;;;;9.34;100.00;101958.20;105155;1264;59584;-50
2023/09/25 04:27:48;;;;;;;15.30;8.10;;;;;;;9.49;100.00;101961.12;105180;1263;71762;-50
2023/09/25 04:30:17;;;;;;;16.30;8.20;;;;;;;9.64;100.00;101961.61;105145;1264;63094;-50
2023/09/25 04:32:46;;;;;;;17.10;6.90;;;;;;;9.76;100.00;101964.98;105206;1263;72586;-50
2023/09/25 04:35:15;;;;;;;20.90;7.10;;;;;;;9.85;100.00;101969.05;105173;1262;60435;-49
2023/09/25 04:37:42;;;;;;;17.10;8.70;;;;;;;9.90;100.00;101969.42;105155;1265;59632;-48
2023/09/25 04:40:22;;;;;;;24.20;9.80;;;;;;;9.97;100.00;101975.17;105202;1266;71518;-49
2023/09/25 04:42:51;;;;;;;22.60;9.80;;;;;;;10.05;100.00;101981.63;105138;1267;63119;-49
2023/09/25 04:45:20;;;;;;;25.90;12.50;;;;;;;10.11;100.00;101985.46;105183;1267;72833;-50
2023/09/25 04:47:51;;;;;;;32.40;12.70;;;;;;;10.17;100.00;101994.81;105171;1265;59684;-51
2023/09/25 04:50:20;;;;;;;35.00;12.60;;;;;;;10.22;100.00;102000.73;105161;1263;60069;-51
2023/09/25 04:52:49;;;;;;;27.50;13.10;;;;;;;10.27;100.00;102009.23;105601;1261;73018;-50
2023/09/25 04:55:17;;;;;;;31.40;13.30;;;;;;;10.33;100.00;102019.27;105615;1257;63119;-50
2023/09/25 04:57:46;;;;;;;39.40;15.50;;;;;;;10.40;100.00;102026.41;105586;1256;71471;-50
2023/09/25 05:00:21;;;;;;;38.70;16.30;;;;;;;10.47;100.00;102040.30;105631;1256;59836;-50
2023/09/25 05:02:49;;;;;;;;;;;;;;;10.55;100.00;102053.13;105647;1256;59612;-50
2023/09/25 05:05:17;;;;;;;45.90;19.30;;;;;;;10.61;100.00;102068.02;105603;1260;73116;-51
2023/09/25 05:07:47;;;;;;;47.50;17.60;;;;;;;10.68;100.00;102080.14;105623;1258;62504;-50
2023/09/25 05:10:23;;;;;;;42.60;16.00;;;;;;;10.74;100.00;102101.26;105664;1260;72006;-51
2023/09/25 05:12:51;;;;;;;34.40;15.70;;;;;;;10.83;100.00;102121.70;105607;1256;60454;-49
2023/09/25 05:15:19;;;;;;;36.70;17.10;;;;;;;10.93;100.00;102143.34;105613;1260;59568;-51
2023/09/25 05:17:48;;;;;;;43.50;17.10;;;;;;;11.01;100.00;102159.30;105886;1253;71888;-49
2023/09/25 05:20:18;;;;;;;43.70;18.00;;;;;;;11.14;100.00;102173.90;105899;1257;64315;-50
2023/09/25 05:22:51;;;;;;;46.70;16.40;;;;;;;11.31;100.00;102187.83;105873;1256;72440;-50
2023/09/25 05:25:19;;;;;;;35.70;14.00;;;;;;;11.49;100.00;102205.91;105950;1252;60448;-49
2023/09/25 05:27:48;;;;;;;36.70;14.50;;;;;;;11.63;100.00;102225.18;105964;1251;60061;-52
2023/09/25 05:30:20;;;;;;;33.70;14.60;;;;;;;11.77;100.00;102236.83;105894;1258;72882;-52
2023/09/25 05:32:50;;;;;;;34.60;14.40;;;;;;;11.97;100.00;102251.13;105959;1253;63217;-49
2023/09/25 05:35:18;;;;;;;41.10;12.00;;;;;;;12.16;100.00;102263.69;105902;1253;71838;-52
2023/09/25 05:37:47;;;;;;;24.80;10.50;;;;;;;12.37;100.00;102277.42;105876;1253;61655;-49
2023/09/25 05:40:17;;;;;;;24.60;10.30;;;;;;;12.56;100.00;102284.75;105880;1256;59596;-51
2023/09/25 05:42:46;;;;;;;26.50;11.60;;;;;;;12.73;100.00;102290.16;105876;1253;73101;-51
2023/09/25 05:45:15;;;;;;;36.70;11.30;;;;;;;12.90;100.00;102292.25;105932;1255;64421;-50
2023/09/25 05:47:46;;;;;;;38.60;11.80;;;;;;;13.05;100.00;102289.50;105886;1253;72630;-49
2023/09/25 05:50:14;;;;;;;28.20;12.70;;;;;;;13.22;100.00;102275.64;105815;1253;59657;-51
2023/09/25 05:52:41;;;;;;;39.30;16.20;;;;;;;13.37;100.00;102250.82;105866;1257;59663;-48
2023/09/25 05:55:12;;;;;;;47.70;20.40;;;;;;;13.50;100.00;102230.02;105856;1253;72783;-49
2023/09/25 05:57:41;;;;;;;52.00;16.00;;;;;;;13.61;100.00;102204.14;105957;1253;63219;-51
2023/09/25 06:00:18;;;;;;;39.20;14.60;;;;;;;13.74;100.00;102163.84;105874;1253;71372;-50
2023/09/25 06:02:46;;;;;;;33.10;14.30;;;;;;;13.84;100.00;102096.30;105924;1253;59827;-49
2023/09/25 06:05:15;;;;;;;28.60;12.40;;;;;;;13.96;100.00;101989.33;105912;1257;59682;-50
2023/09/25 06:07:43;;;;;;;29.70;11.20;;;;;;;14.08;100.00;101854.52;105888;1252;71728;-50
2023/09/25 06:10:11;;;;;;;23.50;11.90;;;;;;;14.21;100.00;101699.18;105923;1251;63138;-50
2023/09/25 06:12:39;;;;;;;27.60;11.20;;;;;;;14.33;100.00;101575.58;105894;1253;71336;-49
2023/09/25 06:15:11;;;;;;;27.60;11.50;;;;;;;14.47;100.00;101478.78;105888;1257;59757;-51
2023/09/25 06:17:40;;;;;;;31.40;12.20;;;;;;;14.62;100.00;101413.38;105830;1253;59957;-51
2023/09/25 06:20:15;;;;;;;28.30;11.10;;;;;;;14.74;100.00;101374.92;105895;1253;71741;-50
2023/09/25 06:22:46;;;;;;;32.70;11.50;;;;;;;14.90;100.00;101359.65;105901;1251;63243;-50
2023/09/25 06:25:17;;;;;;;28.90;12.30;;;;;;;15.04;100.00;101352.39;105914;1253;71189;-53
2023/09/25 06:27:47;;;;;;;29.00;11.50;;;;;;;15.17;100.00;101360.45;105895;1253;59697;-52
2023/09/25 06:30:16;;;;;;;28.60;11.00;;;;;;;15.33;100.00;101390.14;105896;1257;59629;-52
2023/09/25 06:32:44;;;;;;;25.50;11.30;;;;;;;15.48;100.00;101430.31;105880;1254;71752;-52
2023/09/25 06:35:12;;;;;;;25.40;11.60;;;;;;;15.65;100.00;101459.50;105845;1257;65120;-49
2023/09/25 06:37:41;;;;;;;20.40;10.90;;;;;;;15.78;100.00;101469.98;105880;1253;71353;-50
2023/09/25 06:40:10;;;;;;;25.10;10.40;;;;;;;15.94;100.00;101479.54;105945;1252;59721;-50
2023/09/25 06:42:38;;;;;;;17.40;8.70;;;;;;;16.09;100.00;101504.41;105910;1257;59781;-51
2023/09/25 06:45:09;;;;;;;21.30;9.50;;;;;;;16.22;100.00;101519.77;105901;1253;72975;-50
2023/09/25 06:47:37;;;;;;;20.10;8.00;;;;;;;16.35;100.00;101535.13;105850;1255;63112;-51
2023/09/25 06:50:06;;;;;;;24.40;8.00;;;;;;;16.51;100.00;101569.23;105908;1253;70395;-52
2023/09/25 06:52:36;;;;;;;23.90;7.90;;;;;;;16.66;100.00;101619.70;105911;1253;60087;-49
2023/09/25 06:55:04;;;;;;;14.90;7.50;;;;;;;16.83;100.00;101632.52;105925;1251;60177;-49
2023/09/25 06:57:32;;;;;;;30.00;8.10;;;;;;;17.01;100.00;101644.98;105938;1254;72955;-51
2023/09/25 07:00:00;;;;;;;14.40;7.60;;;;;;;17.15;100.00;101662.73;106001;1256;63164;-48
2023/09/25 07:02:28;;;;;;;28.40;8.50;;;;;;;17.31;100.00;101673.32;105893;1257;72704;-50
2023/09/25 07:04:58;;;;;;;28.30;8.60;;;;;;;17.46;100.00;101689.64;105912;1253;59638;-51
2023/09/25 07:07:26;;;;;;;16.80;7.20;;;;;;;17.64;100.00;101698.23;105927;1257;60489;-49
2023/09/25 07:09:55;;;;;;;22.50;7.20;;;;;;;17.79;97.76;101712.46;105829;1252;73051;-51
2023/09/25 07:12:24;;;;;;;20.70;7.70;;;;;;;17.95;87.99;101717.94;105925;1257;64472;-50
2023/09/25 07:14:56;;;;;;;19.00;7.70;;;;;;;18.17;86.64;101737.05;105875;1254;71446;-52
2023/09/25 07:17:25;;;;;;;33.80;8.50;;;;;;;18.37;81.19;101723.35;105940;1257;60445;-49
2023/09/25 07:19:55;;;;;;;25.20;7.70;;;;;;;18.57;79.01;101731.80;105886;1253;60447;-50
2023/09/25 07:22:27;;;;;;;21.20;7.90;;;;;;;18.76;73.56;101695.88;105870;1252;72556;-52
2023/09/25 07:24:56;;;;;;;24.60;7.50;;;;;;;18.97;71.15;101695.72;105845;1253;64714;-50
2023/09/25 07:27:23;;;;;;;16.50;7.70;;;;;;;19.15;69.64;101691.10;105932;1253;72638;-50
2023/09/25 07:29:51;;;;;;;35.80;7.80;;;;;;;19.32;67.71;101661.48;105841;1257;60626;-51
2023/09/25 07:32:19;;;;;;;21.40;6.70;;;;;;;19.49;66.90;101670.50;105862;1257;60425;-51
2023/09/25 07:34:48;;;;;;;23.00;7.30;;;;;;;19.64;65.70;101650.83;105888;1256;73903;-50
2023/09/25 07:37:17;;;;;;;20.10;8.10;;;;;;;19.82;63.58;101597.11;105870;1251;63756;-51
2023/09/25 07:39:46;;;;;;;23.60;7.70;;;;;;;20.02;60.97;101485.09;105907;1251;73121;-50
2023/09/25 07:42:13;;;;;;;17.90;7.20;;;;;;;20.23;58.99;101394.88;105863;1253;60479;-50
2023/09/25 07:44:42;;;;;;;26.30;8.40;;;;;;;20.44;58.13;101375.21;105863;1257;60403;-50
2023/09/25 07:47:12;;;;;;;22.10;7.50;;;;;;;20.67;56.41;101260.19;105906;1252;72777;-51
2023/09/25 07:49:44;;;;;;;17.00;7.20;;;;;;;20.90;56.46;101299.44;105881;1256;63109;-51
2023/09/25 07:52:16;;;;;;;20.30;7.30;;;;;;;21.10;55.41;101237.95;105902;1253;72316;-49
2023/09/25 07:54:45;;;;;;;16.60;8.30;;;;;;;21.29;54.30;101150.63;105903;1255;60537;-50
2023/09/25 07:57:14;;;;;;;26.00;9.90;;;;;;;21.48;54.38;101176.16;105880;1251;60467;-50
2023/09/25 07:59:42;;;;;;;24.60;8.10;;;;;;;21.68;54.71;101232.19;105910;1257;73623;-51
2023/09/25 08:02:12;;;;;;;24.90;7.90;;;;;;;21.89;51.93;100948.77;105893;1258;63240;-51
2023/09/25 08:04:39;;;;;;;19.70;7.70;;;;;;;22.09;52.78;101027.55;105929;1251;73652;-51
2023/09/25 08:07:07;;;;;;;18.30;8.20;;;;;;;22.34;54.35;101252.68;105901;1251;60465;-51
2023/09/25 08:09:36;;;;;;;18.70;8.50;;;;;;;22.59;51.17;100923.56;105958;1251;60824;-50
2023/09/25 08:12:05;;;;;;;17.90;7.00;;;;;;;22.78;50.41;100816.02;105925;1251;73740;-51
2023/09/25 08:14:32;;;;;;;12.50;6.00;;;;;;;22.93;49.55;100707.88;105976;1251;64330;-50
2023/09/25 08:17:00;;;;;;;24.80;6.90;;;;;;;23.10;49.31;100714.48;105905;1257;71502;-51
2023/09/25 08:19:28;;;;;;;21.80;6.00;;;;;;;23.26;49.37;100712.00;105873;1257;60989;-51
2023/09/25 08:21:55;;;;;;;14.20;6.60;;;;;;;23.48;49.88;100798.57;106029;1251;60348;-52
2023/09/25 08:24:23;;;;;;;23.10;5.90;;;;;;;23.74;49.69;100799.13;105947;1257;74345;-51
2023/09/25 08:26:51;;;;;;;11.80;5.50;;;;;;;23.97;48.52;100634.05;105974;1256;63121;-53
2023/09/25 08:29:19;;;;;;;17.20;6.00;;;;;;;24.18;48.53;100643.30;105906;1251;71686;-52
2023/09/25 08:31:49;;;;;;;12.70;5.50;;;;;;;24.40;47.84;100584.27;105908;1253;60536;-52
2023/09/25 08:34:16;;;;;;;54.90;21.90;;;;;;;24.59;46.35;100384.91;105992;1256;60428;-52
2023/09/25 08:36:44;;;;;;;26.90;10.00;;;;;;;24.71;46.29;100379.02;105876;1251;73679;-51
2023/09/25 08:39:13;;;;;;;15.80;6.10;;;;;;;24.87;45.67;100303.52;105941;1251;63189;-52
2023/09/25 08:41:41;;;;;;;24.90;6.50;;;;;;;25.01;44.44;100145.01;105986;1257;71398;-51
2023/09/25 08:44:10;;;;;;;21.20;6.10;;;;;;;25.14;44.51;100154.86;105851;1254;60507;-53
2023/09/25 08:46:38;;;;;;;20.70;5.20;;;;;;;25.35;45.85;100329.98;106004;1251;60514;-52
2023/09/25 08:49:06;;;;;;;13.60;5.10;;;;;;;25.65;47.12;100542.14;105943;1251;72539;-56
2023/09/25 08:51:35;;;;;;;21.00;5.10;;;;;;;25.96;45.87;100363.48;105941;1252;63080;-52
2023/09/25 08:54:03;;;;;;;14.40;4.90;;;;;;;26.20;44.79;100265.92;105687;1254;71386;-51
2023/09/25 08:56:31;;;;;;;12.80;4.70;;;;;;;26.40;43.93;100090.88;105927;1254;60450;-55
2023/09/25 08:59:03;;;;;;;14.60;4.70;;;;;;;26.65;43.02;100008.51;105933;1257;60517;-51
2023/09/25 09:01:30;;;;;;;10.70;5.20;;;;;;;26.80;41.04;99693.58;105937;1257;72591;-52
2023/09/25 09:03:58;;;;;;;16.20;4.10;;;;;;;26.86;40.69;99605.23;105701;1260;63690;-51
2023/09/25 09:06:26;;;;;;;18.90;4.60;;;;;;;26.95;41.22;99703.77;105868;1253;71406;-52
2023/09/25 09:08:57;;;;;;;9.40;4.40;;;;;;;27.16;41.63;99772.04;105877;1259;60427;-50
2023/09/25 09:11:25;;;;;;;9.40;3.90;;;;;;;27.43;41.81;99794.45;105928;1250;60933;-52
2023/09/25 09:13:52;;;;;;;10.70;4.20;;;;;;;27.70;41.24;99730.90;105926;1257;73796;-51
2023/09/25 09:16:20;;;;;;;13.40;3.80;;;;;;;27.93;39.49;99499.27;105924;1257;64376;-51
2023/09/25 09:18:48;;;;;;;9.60;3.40;;;;;;;28.06;38.87;99366.59;105868;1256;74116;-51
2023/09/25 09:21:26;;;;;;;15.10;3.00;;;;;;;28.16;39.86;99472.48;105902;1257;60426;-49
2023/09/25 09:23:56;;;;;;;10.80;2.90;;;;;;;28.35;40.10;99556.57;105914;1256;60461;-52
2023/09/25 09:26:25;;;;;;;14.70;3.60;;;;;;;28.53;38.82;99396.61;105851;1258;74570;-51
2023/09/25 09:28:56;;;;;;;11.40;3.70;;;;;;;28.63;37.31;99178.67;105940;1250;63119;-51
2023/09/25 09:31:23;;;;;;;9.90;3.00;;;;;;;28.64;36.84;99071.75;105960;1253;71428;-52
2023/09/25 09:33:54;;;;;;;7.70;3.30;;;;;;;28.68;37.67;99152.80;105862;1253;60514;-52
2023/09/25 09:36:23;;;;;;;17.90;3.30;;;;;;;28.78;37.57;99184.94;105895;1250;60522;-52
2023/09/25 09:38:52;;;;;;;10.60;3.40;;;;;;;28.87;37.11;99136.04;105910;1257;74090;-51
2023/09/25 09:41:19;;;;;;;13.00;3.50;;;;;;;28.97;38.21;99210.52;105926;1257;64185;-52
2023/09/25 09:43:47;;;;;;;12.70;3.70;;;;;;;29.16;38.18;99320.84;105831;1253;70844;-53
2023/09/25 09:46:15;;;;;;;14.00;3.20;;;;;;;29.36;37.61;99260.52;105910;1250;61089;-50
2023/09/25 09:48:44;;;;;;;10.60;3.30;;;;;;;29.45;36.41;99092.50;105864;1259;60386;-53
2023/09/25 09:51:13;;;;;;;18.80;3.30;;;;;;;29.46;36.34;99046.96;105747;1251;72573;-53
2023/09/25 09:53:41;;;;;;;9.80;3.30;;;;;;;29.47;36.04;98994.60;105718;1251;65425;-51
2023/09/25 09:56:09;;;;;;;17.50;3.80;;;;;;;29.45;36.58;99048.14;105690;1259;71728;-52
2023/09/25 09:58:37;;;;;;;13.60;3.70;;;;;;;29.48;37.18;99165.68;105878;1250;60848;-51
2023/09/25 10:01:04;;;;;;;7.80;3.20;;;;;;;29.61;37.56;99249.63;105727;1251;60424;-51
2023/09/25 10:03:32;;;;;;;9.40;3.00;;;;;;;29.73;37.43;99269.33;105725;1259;74535;-51
2023/09/25 10:06:01;;;;;;;8.40;3.50;;;;;;;29.77;35.53;98993.57;105732;1259;63153;-51
2023/09/25 10:08:29;;;;;;;8.00;3.30;;;;;;;29.62;36.40;99088.33;105940;1250;72846;-52
2023/09/25 10:11:16;;;;;;;12.20;3.20;;;;;;;29.69;36.93;99190.95;105861;1251;60411;-53
2023/09/25 10:13:44;;;;;;;21.80;3.10;;;;;;;29.89;36.58;99183.43;105754;1251;60339;-53
2023/09/25 10:16:14;;;;;;;14.20;3.50;;;;;;;30.00;35.75;99037.60;105872;1250;72585;-52
2023/09/25 10:18:43;;;;;;;17.30;3.30;;;;;;;30.06;34.89;98901.89;105924;1251;63106;-51
2023/09/25 10:21:13;;;;;;;17.80;3.50;;;;;;;30.03;34.43;98793.42;105868;1256;72873;-51
2023/09/25 10:23:47;;;;;;;7.80;3.30;;;;;;;29.96;34.07;98742.94;105936;1253;60527;-51
2023/09/25 10:26:17;;;;;;;8.90;3.00;;;;;;;29.76;34.27;98720.55;105900;1250;60618;-55
2023/09/25 10:28:45;;;;;;;6.80;3.30;;;;;;;29.74;34.31;98728.20;105936;1259;74515;-51
2023/09/25 10:31:20;;;;;;;7.40;3.40;;;;;;;29.72;34.28;98740.50;105887;1259;65081;-52
2023/09/25 10:34:04;;;;;;;10.80;3.50;;;;;;;29.67;34.94;98807.86;105873;1257;73464;-52
2023/09/25 10:36:37;;;;;;;5.20;3.50;;;;;;;29.75;34.64;98794.08;105985;1253;60634;-51
2023/09/25 10:39:14;;;;;;;14.40;3.20;;;;;;;29.76;33.91;98692.70;105939;1251;60758;-52
2023/09/25 10:41:42;;;;;;;7.60;3.30;;;;;;;29.73;34.42;98733.28;105953;1256;74242;-53
2023/09/25 10:44:11;;;;;;;13.50;3.90;;;;;;;29.88;34.70;98806.34;105914;1251;63597;-53
2023/09/25 10:46:39;;;;;;;14.30;2.80;;;;;;;30.01;34.67;98817.52;105760;1259;71456;-52
2023/09/25 10:49:10;;;;;;;8.60;2.90;;;;;;;30.03;33.69;98655.00;105920;1253;60606;-53
2023/09/25 10:51:38;;;;;;;11.90;2.70;;;;;;;29.96;33.45;98619.79;105924;1251;60482;-51
2023/09/25 10:54:06;;;;;;;13.80;2.70;;;;;;;29.99;34.35;98716.86;105928;1250;72618;-52
2023/09/25 10:56:33;;;;;;;13.00;3.50;;;;;;;30.06;34.44;98750.58;105878;1251;65222;-52
2023/09/25 10:59:01;;;;;;;8.90;2.80;;;;;;;30.20;35.59;98919.52;105870;1250;70760;-52
2023/09/25 11:01:30;;;;;;;8.70;2.70;;;;;;;30.36;34.51;98783.25;105891;1259;60727;-53
2023/09/25 11:03:59;;;;;;;9.00;2.70;;;;;;;30.49;33.22;98637.48;105943;1256;60482;-52
2023/09/25 11:06:29;;;;;;;12.80;3.60;;;;;;;30.47;33.57;98605.59;105917;1251;73808;-52
2023/09/25 11:09:13;;;;;;;27.90;3.70;;;;;;;30.42;35.52;98846.54;105970;1257;63094;-54
2023/09/25 11:11:42;;;;;;;24.60;4.50;;;;;;;30.51;35.15;98886.84;105867;1253;71419;-52
2023/09/25 11:14:10;;;;;;;12.90;3.00;;;;;;;30.62;35.62;98941.16;105864;1250;60598;-54
2023/09/25 11:16:39;;;;;;;7.90;2.90;;;;;;;30.81;35.48;98949.08;105913;1259;61256;-52
2023/09/25 11:19:11;;;;;;;10.30;2.40;;;;;;;30.97;35.18;98915.39;105914;1257;74856;-53
2023/09/25 11:21:39;;;;;;;9.20;2.80;;;;;;;31.14;35.63;98954.54;105952;1259;64645;-52
2023/09/25 11:24:08;;;;;;;10.30;3.30;;;;;;;31.28;34.03;98791.60;105923;1254;71414;-52
2023/09/25 11:26:40;;;;;;;30.10;4.50;;;;;;;31.31;33.85;98716.81;105871;1257;60526;-51
2023/09/25 11:29:08;;;;;;;10.00;3.30;;;;;;;31.39;33.35;98637.39;105905;1257;60456;-51
2023/09/25 11:31:39;;;;;;;9.70;2.90;;;;;;;31.46;34.56;98753.81;105906;1257;72604;-52
2023/09/25 11:34:09;;;;;;;61.90;6.10;;;;;;;31.57;34.41;98795.34;105892;1251;65523;-52
2023/09/25 11:36:44;;;;;;;18.20;3.50;;;;;;;31.58;35.26;98902.06;105892;1250;72620;-52
2023/09/25 11:39:16;;;;;;;10.90;2.80;;;;;;;31.59;34.79;98897.30;105978;1251;60690;-53
2023/09/25 11:41:44;;;;;;;8.70;2.70;;;;;;;31.49;33.09;98656.33;105884;1256;60429;-52
2023/09/25 11:44:13;;;;;;;23.30;3.90;;;;;;;31.37;33.12;98621.77;105933;1250;72716;-52
2023/09/25 11:46:42;;;;;;;17.10;3.10;;;;;;;31.33;34.06;98721.45;105901;1250;64885;-52
2023/09/25 11:49:12;;;;;;;5.90;2.80;;;;;;;31.31;33.22;98657.05;105884;1253;71124;-52
2023/09/25 11:51:40;;;;;;;6.90;3.00;;;;;;;31.30;33.86;98699.07;105903;1250;61170;-51
2023/09/25 11:54:08;;;;;;;22.40;3.70;;;;;;;31.36;34.02;98739.55;105918;1250;60806;-53
2023/09/25 11:56:36;;;;;;;17.70;3.60;;;;;;;31.42;34.39;98798.42;105863;1251;74254;-52
2023/09/25 11:59:04;;;;;;;11.10;2.90;;;;;;;31.53;33.75;98768.77;105870;1250;64461;-53
2023/09/25 12:01:31;;;;;;;34.20;4.20;;;;;;;31.56;33.76;98727.12;105688;1260;74652;-52
2023/09/25 12:03:59;;;;;;;23.40;4.30;;;;;;;31.64;34.12;98765.93;105871;1257;60438;-53
2023/09/25 12:06:28;;;;;;;19.60;3.10;;;;;;;31.67;32.49;98571.39;105918;1250;61437;-51